sensor_id;sensor_type;location;lat;lon;timestamp;P1;durP1;ratioP1;P2;durP2;ratioP2
4577;SDS011;2301;47.354;8.528;2022-12-07T00:01:16;17.13;;;10.10;;
4577;SDS011;2301;47.354;8.528;2022-12-07T00:03:44;16.65;;;8.63;;
4577;SDS011;2301;47.354;8.528;2022-12-07T00:06:13;11.45;;;8.43;;
4577;SDS011;2301;47.354;8.528;2022-12-07T00:08:41;19.27;;;10.10;;
4577;SDS011;2301;47.354;8.528;2022-12-07T00:11:10;15.05;;;9.93;;
4577;SDS011;2301;47.354;8.528;2022-12-07T00:13:39;14.90;;;10.38;;
4577;SDS011;2301;47.354;8.528;2022-12-07T00:16:08;14.75;;;10.30;;
4577;SDS011;2301;47.354;8.528;2022-12-07T00:18:36;15.55;;;9.73;;
4577;SDS011;2301;47.354;8.528;2022-12-07T00:21:04;15.07;;;8.60;;
4577;SDS011;2301;47.354;8.528;2022-12-07T00:23:33;14.00;;;10.02;;
4577;SDS011;2301;47.354;8.528;2022-12-07T00:26:04;14.30;;;9.23;;
4577;SDS011;2301;47.354;8.528;2022-12-07T00:28:33;21.55;;;10.35;;
4577;SDS011;2301;47.354;8.528;2022-12-07T00:31:02;16.87;;;9.37;;
4577;SDS011;2301;47.354;8.528;2022-12-07T00:33:30;17.73;;;9.68;;
4577;SDS011;2301;47.354;8.528;2022-12-07T00:35:57;20.37;;;9.80;;
4577;SDS011;2301;47.354;8.528;2022-12-07T00:38:27;13.00;;;8.93;;
4577;SDS011;2301;47.354;8.528;2022-12-07T00:40:55;12.67;;;8.60;;
4577;SDS011;2301;47.354;8.528;2022-12-07T00:43:23;11.35;;;8.55;;
4577;SDS011;2301;47.354;8.528;2022-12-07T00:45:51;9.88;;;7.72;;
4577;SDS011;2301;47.354;8.528;2022-12-07T00:48:19;14.85;;;9.40;;
4577;SDS011;2301;47.354;8.528;2022-12-07T00:50:46;13.20;;;8.70;;
4577;SDS011;2301;47.354;8.528;2022-12-07T00:53:14;13.47;;;8.47;;
4577;SDS011;2301;47.354;8.528;2022-12-07T00:55:42;12.65;;;8.88;;
4577;SDS011;2301;47.354;8.528;2022-12-07T00:58:09;12.60;;;9.43;;
4577;SDS011;2301;47.354;8.528;2022-12-07T01:00:37;13.43;;;9.00;;
4577;SDS011;2301;47.354;8.528;2022-12-07T01:03:07;12.18;;;8.60;;
4577;SDS011;2301;47.354;8.528;2022-12-07T01:05:36;11.18;;;8.73;;
4577;SDS011;2301;47.354;8.528;2022-12-07T01:08:04;11.68;;;8.43;;
4577;SDS011;2301;47.354;8.528;2022-12-07T01:10:32;10.75;;;8.07;;
4577;SDS011;2301;47.354;8.528;2022-12-07T01:12:59;12.25;;;8.00;;
4577;SDS011;2301;47.354;8.528;2022-12-07T01:15:26;12.63;;;9.32;;
4577;SDS011;2301;47.354;8.528;2022-12-07T01:17:53;12.52;;;9.43;;
4577;SDS011;2301;47.354;8.528;2022-12-07T01:20:22;11.60;;;7.30;;
4577;SDS011;2301;47.354;8.528;2022-12-07T01:22:49;11.80;;;8.60;;
4577;SDS011;2301;47.354;8.528;2022-12-07T01:25:16;13.67;;;9.33;;
4577;SDS011;2301;47.354;8.528;2022-12-07T01:27:43;12.70;;;9.77;;
4577;SDS011;2301;47.354;8.528;2022-12-07T01:30:13;11.90;;;8.32;;
4577;SDS011;2301;47.354;8.528;2022-12-07T01:32:40;15.53;;;8.70;;
4577;SDS011;2301;47.354;8.528;2022-12-07T01:35:07;10.83;;;8.50;;
4577;SDS011;2301;47.354;8.528;2022-12-07T01:37:36;14.83;;;10.10;;
4577;SDS011;2301;47.354;8.528;2022-12-07T01:40:05;13.27;;;9.07;;
4577;SDS011;2301;47.354;8.528;2022-12-07T01:42:33;15.52;;;11.40;;
4577;SDS011;2301;47.354;8.528;2022-12-07T01:48:10;13.98;;;8.30;;
4577;SDS011;2301;47.354;8.528;2022-12-07T01:50:41;13.98;;;8.40;;
4577;SDS011;2301;47.354;8.528;2022-12-07T01:53:11;15.75;;;11.82;;
4577;SDS011;2301;47.354;8.528;2022-12-07T01:55:40;12.88;;;9.40;;
4577;SDS011;2301;47.354;8.528;2022-12-07T01:58:10;14.02;;;10.23;;
4577;SDS011;2301;47.354;8.528;2022-12-07T02:00:38;11.30;;;8.80;;
4577;SDS011;2301;47.354;8.528;2022-12-07T02:03:08;12.50;;;9.32;;
4577;SDS011;2301;47.354;8.528;2022-12-07T02:05:40;12.63;;;9.30;;
4577;SDS011;2301;47.354;8.528;2022-12-07T02:08:10;16.20;;;11.30;;
4577;SDS011;2301;47.354;8.528;2022-12-07T02:10:39;15.77;;;11.07;;
4577;SDS011;2301;47.354;8.528;2022-12-07T02:13:08;15.13;;;11.02;;
4577;SDS011;2301;47.354;8.528;2022-12-07T02:15:44;13.60;;;9.43;;
4577;SDS011;2301;47.354;8.528;2022-12-07T02:18:28;12.18;;;9.23;;
4577;SDS011;2301;47.354;8.528;2022-12-07T02:21:06;17.25;;;12.45;;
4577;SDS011;2301;47.354;8.528;2022-12-07T02:23:45;18.13;;;10.65;;
4577;SDS011;2301;47.354;8.528;2022-12-07T02:29:34;14.02;;;10.30;;
4577;SDS011;2301;47.354;8.528;2022-12-07T02:32:06;13.85;;;9.68;;
4577;SDS011;2301;47.354;8.528;2022-12-07T02:34:39;13.35;;;8.73;;
4577;SDS011;2301;47.354;8.528;2022-12-07T02:37:17;14.10;;;10.20;;
4577;SDS011;2301;47.354;8.528;2022-12-07T02:39:51;13.77;;;10.13;;
4577;SDS011;2301;47.354;8.528;2022-12-07T02:42:23;14.45;;;8.90;;
4577;SDS011;2301;47.354;8.528;2022-12-07T02:44:55;13.68;;;9.60;;
4577;SDS011;2301;47.354;8.528;2022-12-07T02:47:22;16.60;;;10.40;;
4577;SDS011;2301;47.354;8.528;2022-12-07T02:49:51;14.35;;;10.73;;
4577;SDS011;2301;47.354;8.528;2022-12-07T02:52:18;12.90;;;8.50;;
4577;SDS011;2301;47.354;8.528;2022-12-07T02:54:45;12.43;;;8.35;;
4577;SDS011;2301;47.354;8.528;2022-12-07T02:57:16;12.88;;;10.15;;
4577;SDS011;2301;47.354;8.528;2022-12-07T02:59:59;17.17;;;10.25;;
4577;SDS011;2301;47.354;8.528;2022-12-07T03:02:32;14.90;;;10.43;;
4577;SDS011;2301;47.354;8.528;2022-12-07T03:08:12;13.77;;;9.20;;
4577;SDS011;2301;47.354;8.528;2022-12-07T03:10:47;13.10;;;9.87;;
4577;SDS011;2301;47.354;8.528;2022-12-07T03:13:22;15.17;;;10.70;;
4577;SDS011;2301;47.354;8.528;2022-12-07T03:15:57;10.32;;;8.68;;
4577;SDS011;2301;47.354;8.528;2022-12-07T03:18:30;14.40;;;10.05;;
4577;SDS011;2301;47.354;8.528;2022-12-07T03:21:01;17.02;;;10.02;;
4577;SDS011;2301;47.354;8.528;2022-12-07T03:23:31;14.70;;;10.60;;
4577;SDS011;2301;47.354;8.528;2022-12-07T03:26:01;14.38;;;9.35;;
4577;SDS011;2301;47.354;8.528;2022-12-07T03:28:31;15.30;;;11.05;;
4577;SDS011;2301;47.354;8.528;2022-12-07T03:31:05;14.32;;;10.43;;
4577;SDS011;2301;47.354;8.528;2022-12-07T03:33:39;17.38;;;9.40;;
4577;SDS011;2301;47.354;8.528;2022-12-07T03:36:14;17.38;;;8.63;;
4577;SDS011;2301;47.354;8.528;2022-12-07T03:38:46;13.38;;;9.80;;
4577;SDS011;2301;47.354;8.528;2022-12-07T03:41:19;13.90;;;10.25;;
4577;SDS011;2301;47.354;8.528;2022-12-07T03:43:50;11.93;;;9.13;;
4577;SDS011;2301;47.354;8.528;2022-12-07T03:46:20;14.77;;;9.38;;
4577;SDS011;2301;47.354;8.528;2022-12-07T03:48:56;11.90;;;8.43;;
4577;SDS011;2301;47.354;8.528;2022-12-07T03:51:32;16.20;;;9.20;;
4577;SDS011;2301;47.354;8.528;2022-12-07T03:54:06;13.77;;;9.25;;
4577;SDS011;2301;47.354;8.528;2022-12-07T03:56:37;15.70;;;8.85;;
4577;SDS011;2301;47.354;8.528;2022-12-07T03:59:05;12.65;;;9.20;;
4577;SDS011;2301;47.354;8.528;2022-12-07T04:01:35;15.80;;;8.63;;
4577;SDS011;2301;47.354;8.528;2022-12-07T04:04:02;12.13;;;8.43;;
4577;SDS011;2301;47.354;8.528;2022-12-07T04:06:29;14.25;;;9.82;;
4577;SDS011;2301;47.354;8.528;2022-12-07T04:08:56;18.50;;;10.98;;
4577;SDS011;2301;47.354;8.528;2022-12-07T04:11:23;13.13;;;9.90;;
4577;SDS011;2301;47.354;8.528;2022-12-07T04:13:50;14.30;;;9.90;;
4577;SDS011;2301;47.354;8.528;2022-12-07T04:16:35;13.35;;;9.50;;
4577;SDS011;2301;47.354;8.528;2022-12-07T04:19:02;18.85;;;10.23;;
4577;SDS011;2301;47.354;8.528;2022-12-07T04:21:29;11.38;;;8.95;;
4577;SDS011;2301;47.354;8.528;2022-12-07T04:23:56;12.05;;;9.02;;
4577;SDS011;2301;47.354;8.528;2022-12-07T04:26:23;13.20;;;9.05;;
4577;SDS011;2301;47.354;8.528;2022-12-07T04:28:50;12.05;;;8.75;;
4577;SDS011;2301;47.354;8.528;2022-12-07T04:31:17;15.93;;;9.80;;
4577;SDS011;2301;47.354;8.528;2022-12-07T04:33:45;21.05;;;9.00;;
4577;SDS011;2301;47.354;8.528;2022-12-07T04:36:12;13.68;;;8.80;;
4577;SDS011;2301;47.354;8.528;2022-12-07T04:38:40;13.60;;;9.57;;
4577;SDS011;2301;47.354;8.528;2022-12-07T04:41:07;14.52;;;9.38;;
4577;SDS011;2301;47.354;8.528;2022-12-07T04:43:35;16.85;;;10.48;;
4577;SDS011;2301;47.354;8.528;2022-12-07T04:46:02;17.83;;;11.32;;
4577;SDS011;2301;47.354;8.528;2022-12-07T04:48:29;15.82;;;9.63;;
4577;SDS011;2301;47.354;8.528;2022-12-07T04:50:58;14.10;;;8.30;;
4577;SDS011;2301;47.354;8.528;2022-12-07T04:53:25;14.55;;;9.45;;
4577;SDS011;2301;47.354;8.528;2022-12-07T04:55:52;20.55;;;10.52;;
4577;SDS011;2301;47.354;8.528;2022-12-07T04:58:19;13.75;;;9.30;;
4577;SDS011;2301;47.354;8.528;2022-12-07T05:00:46;18.05;;;8.90;;
4577;SDS011;2301;47.354;8.528;2022-12-07T05:03:13;19.88;;;10.32;;
4577;SDS011;2301;47.354;8.528;2022-12-07T05:05:40;16.23;;;10.82;;
4577;SDS011;2301;47.354;8.528;2022-12-07T05:08:09;28.30;;;11.38;;
4577;SDS011;2301;47.354;8.528;2022-12-07T05:10:36;17.98;;;10.27;;
4577;SDS011;2301;47.354;8.528;2022-12-07T05:13:03;17.00;;;9.63;;
4577;SDS011;2301;47.354;8.528;2022-12-07T05:15:30;16.27;;;10.63;;
4577;SDS011;2301;47.354;8.528;2022-12-07T05:17:57;14.52;;;9.30;;
4577;SDS011;2301;47.354;8.528;2022-12-07T05:20:24;15.18;;;9.57;;
4577;SDS011;2301;47.354;8.528;2022-12-07T05:22:51;21.95;;;10.35;;
4577;SDS011;2301;47.354;8.528;2022-12-07T05:25:20;16.10;;;9.63;;
4577;SDS011;2301;47.354;8.528;2022-12-07T05:27:46;13.93;;;9.38;;
4577;SDS011;2301;47.354;8.528;2022-12-07T05:30:14;16.58;;;11.00;;
4577;SDS011;2301;47.354;8.528;2022-12-07T05:32:41;16.20;;;11.10;;
4577;SDS011;2301;47.354;8.528;2022-12-07T05:35:08;20.48;;;11.63;;
4577;SDS011;2301;47.354;8.528;2022-12-07T05:37:36;16.08;;;10.80;;
4577;SDS011;2301;47.354;8.528;2022-12-07T05:40:03;18.95;;;11.45;;
4577;SDS011;2301;47.354;8.528;2022-12-07T05:42:33;13.55;;;9.60;;
4577;SDS011;2301;47.354;8.528;2022-12-07T05:45:00;15.13;;;9.70;;
4577;SDS011;2301;47.354;8.528;2022-12-07T05:47:27;17.10;;;11.05;;
4577;SDS011;2301;47.354;8.528;2022-12-07T05:49:54;16.30;;;9.70;;
4577;SDS011;2301;47.354;8.528;2022-12-07T05:52:22;27.52;;;11.98;;
4577;SDS011;2301;47.354;8.528;2022-12-07T05:54:49;16.27;;;10.52;;
4577;SDS011;2301;47.354;8.528;2022-12-07T05:57:16;17.45;;;9.80;;
4577;SDS011;2301;47.354;8.528;2022-12-07T05:59:44;16.98;;;10.52;;
4577;SDS011;2301;47.354;8.528;2022-12-07T06:02:11;20.67;;;12.43;;
4577;SDS011;2301;47.354;8.528;2022-12-07T06:04:39;15.25;;;10.13;;
4577;SDS011;2301;47.354;8.528;2022-12-07T06:07:08;20.23;;;11.07;;
4577;SDS011;2301;47.354;8.528;2022-12-07T06:09:36;16.77;;;11.68;;
4577;SDS011;2301;47.354;8.528;2022-12-07T06:12:04;16.98;;;10.48;;
4577;SDS011;2301;47.354;8.528;2022-12-07T06:14:50;31.05;;;19.67;;
4577;SDS011;2301;47.354;8.528;2022-12-07T06:17:17;38.75;;;21.20;;
4577;SDS011;2301;47.354;8.528;2022-12-07T06:19:44;32.42;;;19.50;;
4577;SDS011;2301;47.354;8.528;2022-12-07T06:22:12;34.88;;;21.48;;
4577;SDS011;2301;47.354;8.528;2022-12-07T06:24:41;37.58;;;22.00;;
4577;SDS011;2301;47.354;8.528;2022-12-07T06:27:08;40.08;;;22.20;;
4577;SDS011;2301;47.354;8.528;2022-12-07T06:29:35;39.70;;;22.52;;
4577;SDS011;2301;47.354;8.528;2022-12-07T06:32:04;37.53;;;22.27;;
4577;SDS011;2301;47.354;8.528;2022-12-07T06:34:31;39.38;;;22.05;;
4577;SDS011;2301;47.354;8.528;2022-12-07T06:36:58;48.00;;;24.58;;
4577;SDS011;2301;47.354;8.528;2022-12-07T06:39:26;39.58;;;22.50;;
4577;SDS011;2301;47.354;8.528;2022-12-07T06:41:54;40.53;;;23.60;;
4577;SDS011;2301;47.354;8.528;2022-12-07T06:44:22;37.00;;;22.67;;
4577;SDS011;2301;47.354;8.528;2022-12-07T06:46:50;39.97;;;22.95;;
4577;SDS011;2301;47.354;8.528;2022-12-07T06:49:19;40.38;;;23.05;;
4577;SDS011;2301;47.354;8.528;2022-12-07T06:51:46;42.13;;;23.45;;
4577;SDS011;2301;47.354;8.528;2022-12-07T06:54:14;42.28;;;23.98;;
4577;SDS011;2301;47.354;8.528;2022-12-07T06:56:43;39.90;;;21.58;;
4577;SDS011;2301;47.354;8.528;2022-12-07T06:59:10;40.88;;;22.17;;
4577;SDS011;2301;47.354;8.528;2022-12-07T07:01:37;46.92;;;22.92;;
4577;SDS011;2301;47.354;8.528;2022-12-07T07:04:04;39.47;;;22.90;;
4577;SDS011;2301;47.354;8.528;2022-12-07T07:06:33;36.92;;;22.45;;
4577;SDS011;2301;47.354;8.528;2022-12-07T07:09:01;48.28;;;23.75;;
4577;SDS011;2301;47.354;8.528;2022-12-07T07:11:28;45.83;;;22.83;;
4577;SDS011;2301;47.354;8.528;2022-12-07T07:13:55;42.75;;;23.17;;
4577;SDS011;2301;47.354;8.528;2022-12-07T07:16:27;42.13;;;22.83;;
4577;SDS011;2301;47.354;8.528;2022-12-07T07:18:55;38.70;;;21.65;;
4577;SDS011;2301;47.354;8.528;2022-12-07T07:21:22;41.10;;;22.48;;
4577;SDS011;2301;47.354;8.528;2022-12-07T07:23:50;43.58;;;21.83;;
4577;SDS011;2301;47.354;8.528;2022-12-07T07:26:18;43.85;;;23.63;;
4577;SDS011;2301;47.354;8.528;2022-12-07T07:28:45;47.70;;;23.55;;
4577;SDS011;2301;47.354;8.528;2022-12-07T07:31:12;44.13;;;24.05;;
4577;SDS011;2301;47.354;8.528;2022-12-07T07:33:39;41.65;;;22.80;;
4577;SDS011;2301;47.354;8.528;2022-12-07T07:36:06;49.20;;;24.58;;
4577;SDS011;2301;47.354;8.528;2022-12-07T07:38:33;45.75;;;24.38;;
4577;SDS011;2301;47.354;8.528;2022-12-07T07:41:02;47.17;;;23.88;;
4577;SDS011;2301;47.354;8.528;2022-12-07T07:43:29;44.05;;;22.13;;
4577;SDS011;2301;47.354;8.528;2022-12-07T07:45:56;49.95;;;25.10;;
4577;SDS011;2301;47.354;8.528;2022-12-07T07:48:23;46.55;;;24.02;;
4577;SDS011;2301;47.354;8.528;2022-12-07T07:50:51;47.33;;;24.60;;
4577;SDS011;2301;47.354;8.528;2022-12-07T07:53:18;44.00;;;22.40;;
4577;SDS011;2301;47.354;8.528;2022-12-07T07:55:50;46.40;;;24.58;;
4577;SDS011;2301;47.354;8.528;2022-12-07T07:58:19;44.08;;;24.88;;
4577;SDS011;2301;47.354;8.528;2022-12-07T08:00:47;52.67;;;24.88;;
4577;SDS011;2301;47.354;8.528;2022-12-07T08:03:14;54.10;;;27.00;;
4577;SDS011;2301;47.354;8.528;2022-12-07T08:05:41;48.00;;;25.73;;
4577;SDS011;2301;47.354;8.528;2022-12-07T08:08:08;48.50;;;24.40;;
4577;SDS011;2301;47.354;8.528;2022-12-07T08:10:35;44.80;;;24.48;;
4577;SDS011;2301;47.354;8.528;2022-12-07T08:13:03;48.80;;;25.27;;
4577;SDS011;2301;47.354;8.528;2022-12-07T08:15:44;49.63;;;24.92;;
4577;SDS011;2301;47.354;8.528;2022-12-07T08:18:14;53.78;;;25.70;;
4577;SDS011;2301;47.354;8.528;2022-12-07T08:20:42;54.70;;;25.48;;
4577;SDS011;2301;47.354;8.528;2022-12-07T08:23:09;46.03;;;24.83;;
4577;SDS011;2301;47.354;8.528;2022-12-07T08:25:37;46.15;;;25.02;;
4577;SDS011;2301;47.354;8.528;2022-12-07T08:28:05;51.60;;;24.80;;
4577;SDS011;2301;47.354;8.528;2022-12-07T08:30:32;47.50;;;25.58;;
4577;SDS011;2301;47.354;8.528;2022-12-07T08:33:01;53.45;;;26.80;;
4577;SDS011;2301;47.354;8.528;2022-12-07T08:35:28;53.70;;;25.98;;
4577;SDS011;2301;47.354;8.528;2022-12-07T08:37:55;52.55;;;25.60;;
4577;SDS011;2301;47.354;8.528;2022-12-07T08:40:23;46.28;;;24.38;;
4577;SDS011;2301;47.354;8.528;2022-12-07T08:42:51;50.17;;;26.13;;
4577;SDS011;2301;47.354;8.528;2022-12-07T08:45:18;51.63;;;25.30;;
4577;SDS011;2301;47.354;8.528;2022-12-07T08:47:48;47.45;;;24.52;;
4577;SDS011;2301;47.354;8.528;2022-12-07T08:50:19;48.67;;;23.80;;
4577;SDS011;2301;47.354;8.528;2022-12-07T08:52:50;50.90;;;25.73;;
4577;SDS011;2301;47.354;8.528;2022-12-07T08:55:20;46.28;;;25.98;;
4577;SDS011;2301;47.354;8.528;2022-12-07T08:57:47;52.15;;;26.15;;
4577;SDS011;2301;47.354;8.528;2022-12-07T09:00:15;50.40;;;26.05;;
4577;SDS011;2301;47.354;8.528;2022-12-07T09:02:43;51.40;;;25.45;;
4577;SDS011;2301;47.354;8.528;2022-12-07T09:05:10;48.22;;;25.27;;
4577;SDS011;2301;47.354;8.528;2022-12-07T09:07:41;50.55;;;25.95;;
4577;SDS011;2301;47.354;8.528;2022-12-07T09:10:09;47.03;;;24.52;;
4577;SDS011;2301;47.354;8.528;2022-12-07T09:12:37;46.33;;;24.52;;
4577;SDS011;2301;47.354;8.528;2022-12-07T09:15:04;53.03;;;26.23;;
4577;SDS011;2301;47.354;8.528;2022-12-07T09:17:32;51.55;;;26.23;;
4577;SDS011;2301;47.354;8.528;2022-12-07T09:20:03;49.22;;;25.52;;
4577;SDS011;2301;47.354;8.528;2022-12-07T09:22:31;51.72;;;26.55;;
4577;SDS011;2301;47.354;8.528;2022-12-07T09:25:00;54.58;;;25.27;;
4577;SDS011;2301;47.354;8.528;2022-12-07T09:27:27;45.35;;;25.52;;
4577;SDS011;2301;47.354;8.528;2022-12-07T09:29:55;55.78;;;25.60;;
4577;SDS011;2301;47.354;8.528;2022-12-07T09:32:22;55.53;;;26.13;;
4577;SDS011;2301;47.354;8.528;2022-12-07T09:34:51;49.83;;;26.63;;
4577;SDS011;2301;47.354;8.528;2022-12-07T09:37:19;48.58;;;25.42;;
4577;SDS011;2301;47.354;8.528;2022-12-07T09:39:46;48.08;;;24.35;;
4577;SDS011;2301;47.354;8.528;2022-12-07T09:42:19;49.85;;;24.73;;
4577;SDS011;2301;47.354;8.528;2022-12-07T09:44:54;54.65;;;27.60;;
4577;SDS011;2301;47.354;8.528;2022-12-07T09:47:21;50.65;;;23.58;;
4577;SDS011;2301;47.354;8.528;2022-12-07T09:49:49;44.13;;;25.13;;
4577;SDS011;2301;47.354;8.528;2022-12-07T09:52:17;46.28;;;24.05;;
4577;SDS011;2301;47.354;8.528;2022-12-07T09:54:51;50.58;;;25.77;;
4577;SDS011;2301;47.354;8.528;2022-12-07T09:57:22;50.38;;;24.25;;
4577;SDS011;2301;47.354;8.528;2022-12-07T09:59:55;41.80;;;24.48;;
4577;SDS011;2301;47.354;8.528;2022-12-07T10:02:29;45.90;;;24.23;;
4577;SDS011;2301;47.354;8.528;2022-12-07T10:05:03;48.08;;;24.30;;
4577;SDS011;2301;47.354;8.528;2022-12-07T10:07:32;44.97;;;23.15;;
4577;SDS011;2301;47.354;8.528;2022-12-07T10:10:01;55.60;;;24.63;;
4577;SDS011;2301;47.354;8.528;2022-12-07T10:12:31;48.83;;;23.95;;
4577;SDS011;2301;47.354;8.528;2022-12-07T10:15:23;37.28;;;22.33;;
4577;SDS011;2301;47.354;8.528;2022-12-07T10:18:19;42.97;;;23.08;;
4577;SDS011;2301;47.354;8.528;2022-12-07T10:21:03;43.22;;;21.33;;
4577;SDS011;2301;47.354;8.528;2022-12-07T10:24:00;41.63;;;21.20;;
4577;SDS011;2301;47.354;8.528;2022-12-07T10:26:31;45.05;;;21.38;;
4577;SDS011;2301;47.354;8.528;2022-12-07T10:29:01;45.80;;;22.15;;
4577;SDS011;2301;47.354;8.528;2022-12-07T10:31:40;43.08;;;23.27;;
4577;SDS011;2301;47.354;8.528;2022-12-07T10:34:14;37.45;;;20.63;;
4577;SDS011;2301;47.354;8.528;2022-12-07T10:36:49;44.33;;;21.98;;
4577;SDS011;2301;47.354;8.528;2022-12-07T10:39:17;41.85;;;22.08;;
4577;SDS011;2301;47.354;8.528;2022-12-07T10:41:58;40.33;;;19.73;;
4577;SDS011;2301;47.354;8.528;2022-12-07T10:44:33;37.15;;;19.70;;
4577;SDS011;2301;47.354;8.528;2022-12-07T10:47:03;34.38;;;20.25;;
4577;SDS011;2301;47.354;8.528;2022-12-07T10:53:27;34.53;;;19.20;;
4577;SDS011;2301;47.354;8.528;2022-12-07T10:59:25;39.22;;;20.90;;
4577;SDS011;2301;47.354;8.528;2022-12-07T11:02:24;32.22;;;19.55;;
4577;SDS011;2301;47.354;8.528;2022-12-07T11:05:02;32.47;;;19.10;;
4577;SDS011;2301;47.354;8.528;2022-12-07T11:07:42;36.53;;;20.05;;
4577;SDS011;2301;47.354;8.528;2022-12-07T11:10:18;33.17;;;19.35;;
4577;SDS011;2301;47.354;8.528;2022-12-07T11:13:04;34.10;;;19.80;;
4577;SDS011;2301;47.354;8.528;2022-12-07T11:15:51;29.45;;;17.40;;
4577;SDS011;2301;47.354;8.528;2022-12-07T11:18:29;31.13;;;17.75;;
4577;SDS011;2301;47.354;8.528;2022-12-07T11:21:05;30.85;;;17.75;;
4577;SDS011;2301;47.354;8.528;2022-12-07T11:23:46;34.05;;;19.85;;
4577;SDS011;2301;47.354;8.528;2022-12-07T11:26:21;33.67;;;18.77;;
4577;SDS011;2301;47.354;8.528;2022-12-07T11:29:06;34.78;;;19.33;;
4577;SDS011;2301;47.354;8.528;2022-12-07T11:31:51;33.00;;;19.42;;
4577;SDS011;2301;47.354;8.528;2022-12-07T11:34:26;29.52;;;18.00;;
4577;SDS011;2301;47.354;8.528;2022-12-07T11:37:02;38.33;;;19.58;;
4577;SDS011;2301;47.354;8.528;2022-12-07T11:39:39;28.50;;;18.10;;
4577;SDS011;2301;47.354;8.528;2022-12-07T11:42:12;31.30;;;19.60;;
4577;SDS011;2301;47.354;8.528;2022-12-07T11:44:46;31.42;;;18.48;;
4577;SDS011;2301;47.354;8.528;2022-12-07T11:47:20;31.02;;;18.58;;
4577;SDS011;2301;47.354;8.528;2022-12-07T11:49:53;30.10;;;17.90;;
4577;SDS011;2301;47.354;8.528;2022-12-07T11:52:25;30.70;;;18.13;;
4577;SDS011;2301;47.354;8.528;2022-12-07T11:54:57;28.52;;;18.10;;
4577;SDS011;2301;47.354;8.528;2022-12-07T11:57:26;34.08;;;18.95;;
4577;SDS011;2301;47.354;8.528;2022-12-07T12:00:00;34.10;;;18.52;;
4577;SDS011;2301;47.354;8.528;2022-12-07T12:02:33;30.98;;;20.33;;
4577;SDS011;2301;47.354;8.528;2022-12-07T12:05:07;38.60;;;18.05;;
4577;SDS011;2301;47.354;8.528;2022-12-07T12:07:41;29.80;;;17.73;;
4577;SDS011;2301;47.354;8.528;2022-12-07T12:10:16;29.15;;;17.80;;
4577;SDS011;2301;47.354;8.528;2022-12-07T12:15:38;26.48;;;16.80;;
4577;SDS011;2301;47.354;8.528;2022-12-07T12:21:12;28.20;;;15.52;;
4577;SDS011;2301;47.354;8.528;2022-12-07T12:23:44;29.30;;;17.45;;
4577;SDS011;2301;47.354;8.528;2022-12-07T12:26:16;32.53;;;17.83;;
4577;SDS011;2301;47.354;8.528;2022-12-07T12:28:54;25.67;;;16.65;;
4577;SDS011;2301;47.354;8.528;2022-12-07T12:31:31;27.30;;;16.05;;
4577;SDS011;2301;47.354;8.528;2022-12-07T12:34:03;22.45;;;15.77;;
4577;SDS011;2301;47.354;8.528;2022-12-07T12:36:57;26.98;;;16.55;;
4577;SDS011;2301;47.354;8.528;2022-12-07T12:39:25;31.65;;;17.33;;
4577;SDS011;2301;47.354;8.528;2022-12-07T12:44:41;21.88;;;14.75;;
4577;SDS011;2301;47.354;8.528;2022-12-07T12:47:39;24.38;;;16.70;;
4577;SDS011;2301;47.354;8.528;2022-12-07T12:50:16;28.13;;;15.48;;
4577;SDS011;2301;47.354;8.528;2022-12-07T12:52:47;24.50;;;16.30;;
4577;SDS011;2301;47.354;8.528;2022-12-07T12:55:22;27.40;;;15.70;;
4577;SDS011;2301;47.354;8.528;2022-12-07T12:58:25;29.90;;;17.00;;
4577;SDS011;2301;47.354;8.528;2022-12-07T13:07:03;24.83;;;16.77;;
4577;SDS011;2301;47.354;8.528;2022-12-07T13:09:31;25.85;;;15.32;;
4577;SDS011;2301;47.354;8.528;2022-12-07T13:12:02;25.90;;;15.85;;
4577;SDS011;2301;47.354;8.528;2022-12-07T13:14:52;21.38;;;14.43;;
4577;SDS011;2301;47.354;8.528;2022-12-07T13:20:49;25.48;;;15.82;;
4577;SDS011;2301;47.354;8.528;2022-12-07T13:23:20;24.92;;;15.70;;
4577;SDS011;2301;47.354;8.528;2022-12-07T13:25:54;24.30;;;14.40;;
4577;SDS011;2301;47.354;8.528;2022-12-07T13:28:32;30.38;;;16.05;;
4577;SDS011;2301;47.354;8.528;2022-12-07T13:31:08;27.40;;;16.92;;
4577;SDS011;2301;47.354;8.528;2022-12-07T13:33:44;23.42;;;15.30;;
4577;SDS011;2301;47.354;8.528;2022-12-07T13:36:15;24.42;;;16.35;;
4577;SDS011;2301;47.354;8.528;2022-12-07T13:38:51;25.65;;;14.88;;
4577;SDS011;2301;47.354;8.528;2022-12-07T13:41:20;20.35;;;14.18;;
4577;SDS011;2301;47.354;8.528;2022-12-07T13:43:50;25.17;;;15.55;;
4577;SDS011;2301;47.354;8.528;2022-12-07T13:46:27;23.65;;;15.52;;
4577;SDS011;2301;47.354;8.528;2022-12-07T13:49:02;19.40;;;13.45;;
4577;SDS011;2301;47.354;8.528;2022-12-07T13:51:29;17.63;;;13.07;;
4577;SDS011;2301;47.354;8.528;2022-12-07T13:54:08;20.58;;;12.10;;
4577;SDS011;2301;47.354;8.528;2022-12-07T13:56:37;15.38;;;11.18;;
4577;SDS011;2301;47.354;8.528;2022-12-07T13:59:05;17.40;;;11.15;;
4577;SDS011;2301;47.354;8.528;2022-12-07T14:01:36;14.80;;;10.38;;
4577;SDS011;2301;47.354;8.528;2022-12-07T14:04:16;14.52;;;9.13;;
4577;SDS011;2301;47.354;8.528;2022-12-07T14:06:57;15.45;;;9.10;;
4577;SDS011;2301;47.354;8.528;2022-12-07T14:09:27;11.57;;;8.48;;
4577;SDS011;2301;47.354;8.528;2022-12-07T14:11:55;11.48;;;8.75;;
4577;SDS011;2301;47.354;8.528;2022-12-07T14:14:25;12.00;;;8.07;;
4577;SDS011;2301;47.354;8.528;2022-12-07T14:16:56;9.48;;;6.53;;
4577;SDS011;2301;47.354;8.528;2022-12-07T14:19:41;10.98;;;7.13;;
4577;SDS011;2301;47.354;8.528;2022-12-07T14:22:17;10.23;;;7.40;;
4577;SDS011;2301;47.354;8.528;2022-12-07T14:24:49;11.23;;;7.55;;
4577;SDS011;2301;47.354;8.528;2022-12-07T14:27:16;12.85;;;9.38;;
4577;SDS011;2301;47.354;8.528;2022-12-07T14:29:44;13.30;;;9.80;;
4577;SDS011;2301;47.354;8.528;2022-12-07T14:32:19;18.95;;;9.95;;
4577;SDS011;2301;47.354;8.528;2022-12-07T14:34:53;11.70;;;9.10;;
4577;SDS011;2301;47.354;8.528;2022-12-07T14:37:22;15.00;;;9.68;;
4577;SDS011;2301;47.354;8.528;2022-12-07T14:39:51;13.50;;;8.55;;
4577;SDS011;2301;47.354;8.528;2022-12-07T14:42:18;12.00;;;8.77;;
4577;SDS011;2301;47.354;8.528;2022-12-07T14:44:46;12.60;;;8.82;;
4577;SDS011;2301;47.354;8.528;2022-12-07T14:47:13;13.38;;;8.68;;
4577;SDS011;2301;47.354;8.528;2022-12-07T14:49:40;12.13;;;9.00;;
4577;SDS011;2301;47.354;8.528;2022-12-07T14:52:08;14.80;;;9.98;;
4577;SDS011;2301;47.354;8.528;2022-12-07T14:54:39;17.45;;;9.73;;
4577;SDS011;2301;47.354;8.528;2022-12-07T14:57:09;14.85;;;9.55;;
4577;SDS011;2301;47.354;8.528;2022-12-07T14:59:37;21.63;;;11.15;;
4577;SDS011;2301;47.354;8.528;2022-12-07T15:02:04;14.45;;;9.80;;
4577;SDS011;2301;47.354;8.528;2022-12-07T15:04:32;16.15;;;10.27;;
4577;SDS011;2301;47.354;8.528;2022-12-07T15:07:00;14.05;;;9.85;;
4577;SDS011;2301;47.354;8.528;2022-12-07T15:09:29;14.43;;;8.77;;
4577;SDS011;2301;47.354;8.528;2022-12-07T15:11:56;13.70;;;9.27;;
4577;SDS011;2301;47.354;8.528;2022-12-07T15:14:24;17.60;;;10.88;;
4577;SDS011;2301;47.354;8.528;2022-12-07T15:16:51;13.90;;;10.00;;
4577;SDS011;2301;47.354;8.528;2022-12-07T15:19:19;17.95;;;9.77;;
4577;SDS011;2301;47.354;8.528;2022-12-07T15:21:48;17.70;;;10.07;;
4577;SDS011;2301;47.354;8.528;2022-12-07T15:24:15;18.23;;;10.15;;
4577;SDS011;2301;47.354;8.528;2022-12-07T15:26:43;15.43;;;10.50;;
4577;SDS011;2301;47.354;8.528;2022-12-07T15:29:10;13.45;;;9.30;;
4577;SDS011;2301;47.354;8.528;2022-12-07T15:31:40;15.55;;;9.80;;
4577;SDS011;2301;47.354;8.528;2022-12-07T15:34:07;14.38;;;9.63;;
4577;SDS011;2301;47.354;8.528;2022-12-07T15:36:35;14.80;;;9.65;;
4577;SDS011;2301;47.354;8.528;2022-12-07T15:39:03;20.08;;;10.48;;
4577;SDS011;2301;47.354;8.528;2022-12-07T15:41:30;14.27;;;10.38;;
4577;SDS011;2301;47.354;8.528;2022-12-07T15:43:57;18.70;;;10.77;;
4577;SDS011;2301;47.354;8.528;2022-12-07T15:46:42;16.05;;;11.73;;
4577;SDS011;2301;47.354;8.528;2022-12-07T15:49:11;17.88;;;11.45;;